Kozani, Greece
Current Conditions -  °F | °C
As of 3:20 AM on Friday 19 Dec 2014 (Local Time) from LGKZ Reporting Station
NA  
Wind Chill: 26°   Ceiling: NA
Heat Index: 36°   Visibility: NA
Dew Point: 34°   Wind: 15mph
Humidity: 93%   Direction: 340°NNW
Pressure: 30.15"   Gusts: NA
Location:  40.3°N, 21.79°E
Report Text: LGKZ 190020Z AUTO 34013KT //// // ////// 02/01 Q1021 RE//
Loading
Personal Weather Stations






























Interactive Weather Map New forecast layout! Learn more

10-Day Weather Forecast

Advertisements
Track Severe Weather on mobile